Time;durP1;ratioP1;P1;durP2;ratioP2;P2;SDS_P1;SDS_P2;PMS_P1;PMS_P2;Temp;Humidity;BMP_temperature;BMP_pressure;BME280_temperature;BME280_humidity;BME280_pressure;Samples;Min_cycle;Max_cycle;Signal;HPM_P1;HPM_P2
2021/09/06 00:01:09;;;;;;;2.53;1.23;;;;;;;13.07;65.52;101961.53;5081945;28;20208;-69
2021/09/06 00:03:38;;;;;;;1.27;1.10;;;;;;;13.16;65.70;101957.44;5069464;28;20207;-65
2021/09/06 00:06:07;;;;;;;2.90;1.87;;;;;;;13.19;65.91;101960.00;5068676;28;20301;-65
2021/09/06 00:08:35;;;;;;;1.40;1.30;;;;;;;13.30;64.34;101962.06;5069064;28;20917;-69
2021/09/06 00:11:05;;;;;;;1.47;1.33;;;;;;;13.34;65.06;101961.78;5069199;28;20282;-70
2021/09/06 00:13:36;;;;;;;3.87;1.40;;;;;;;13.40;64.97;101952.44;5069199;28;20201;-70
2021/09/06 00:16:05;;;;;;;2.57;1.50;;;;;;;13.48;64.90;101954.69;5076603;28;20202;-69
2021/09/06 00:18:33;;;;;;;1.73;1.33;;;;;;;13.55;65.26;101950.66;5076527;28;20209;-70
2021/09/06 00:21:03;;;;;;;4.20;1.33;;;;;;;13.44;65.07;101926.13;5073716;28;20200;-65
2021/09/06 00:23:31;;;;;;;1.67;1.47;;;;;;;13.62;64.98;101950.19;5089542;28;20206;-65
2021/09/06 00:25:59;;;;;;;2.87;1.50;;;;;;;13.70;65.29;101949.72;5089381;28;20211;-65
2021/09/06 00:28:27;;;;;;;2.10;1.40;;;;;;;13.70;64.77;101941.59;5088308;28;20209;-69
2021/09/06 00:30:58;;;;;;;1.40;1.30;;;;;;;13.74;64.61;101945.84;5087616;28;20251;-69
2021/09/06 00:33:26;;;;;;;2.40;1.40;;;;;;;13.82;64.49;101948.97;5088003;28;20210;-69
2021/09/06 00:35:55;;;;;;;3.37;1.70;;;;;;;13.86;63.91;101939.72;5089279;28;20202;-69
2021/09/06 00:38:23;;;;;;;5.07;1.50;;;;;;;13.93;63.67;101943.75;5089298;28;20767;-69
2021/09/06 00:40:52;;;;;;;2.70;1.33;;;;;;;13.96;63.89;101950.78;5088113;28;20822;-69
2021/09/06 00:43:20;;;;;;;2.73;1.50;;;;;;;14.01;64.09;101950.50;5089736;28;20202;-69
2021/09/06 00:45:50;;;;;;;3.37;1.30;;;;;;;14.03;63.62;101940.47;5088235;28;20210;-69
2021/09/06 00:48:19;;;;;;;2.90;1.60;;;;;;;13.88;63.69;101905.38;5075303;28;20187;-65
2021/09/06 00:50:48;;;;;;;2.83;1.53;;;;;;;14.15;63.98;101945.13;5087513;28;20597;-65
2021/09/06 00:53:18;;;;;;;2.10;1.33;;;;;;;14.19;63.90;101946.66;5088125;28;20195;-64
2021/09/06 00:55:47;;;;;;;5.20;1.40;;;;;;;14.20;63.78;101942.97;5089125;28;20209;-65
2021/09/06 00:58:16;;;;;;;1.80;1.27;;;;;;;14.25;65.40;101948.97;5088045;28;20212;-65
2021/09/06 01:00:45;;;;;;;1.67;1.10;;;;;;;14.29;64.57;101947.78;5077142;28;20200;-64
2021/09/06 01:03:18;;;;;;;4.97;1.20;;;;;;;14.30;65.07;101947.69;5082889;28;20192;-69
2021/09/06 01:05:48;;;;;;;4.70;1.57;;;;;;;14.35;65.15;101942.00;5086637;28;20260;-69
2021/09/06 01:08:36;;;;;;;3.80;1.40;;;;;;;14.38;64.96;101930.97;5081905;28;20541;-69
2021/09/06 01:11:23;;;;;;;2.73;1.30;;;;;;;14.46;64.96;101935.94;5087406;28;20605;-69
2021/09/06 01:14:09;;;;;;;2.87;1.30;;;;;;;14.51;63.77;101942.78;5074554;28;20211;-69
2021/09/06 01:16:40;;;;;;;3.37;1.40;;;;;;;14.55;64.10;101940.75;5078231;28;20212;-69
2021/09/06 01:19:11;;;;;;;1.83;1.10;;;;;;;14.58;63.73;101938.69;5087053;28;20215;-69
2021/09/06 01:21:39;;;;;;;3.27;1.40;;;;;;;14.60;64.14;101936.75;5086866;28;20204;-69
2021/09/06 01:24:26;;;;;;;2.27;1.20;;;;;;;14.38;64.09;101893.13;5086868;28;20238;-65
2021/09/06 01:26:59;;;;;;;2.17;1.30;;;;;;;14.62;64.05;101924.97;5081461;28;20254;-66
2021/09/06 01:29:28;;;;;;;2.47;1.50;;;;;;;14.66;64.11;101924.66;5100458;28;20676;-65
2021/09/06 01:31:58;;;;;;;2.57;1.53;;;;;;;14.65;64.56;101933.75;5101498;28;20579;-65
2021/09/06 01:34:27;;;;;;;2.43;1.57;;;;;;;14.70;64.98;101933.47;5104518;28;20208;-65
2021/09/06 01:37:00;;;;;;;1.43;1.30;;;;;;;14.71;65.18;101943.31;5070218;28;20247;-65
2021/09/06 01:39:29;;;;;;;1.80;1.33;;;;;;;14.70;65.10;101931.66;5105193;28;20303;-69
2021/09/06 01:41:59;;;;;;;6.20;1.40;;;;;;;14.75;65.26;101937.59;5076726;28;20707;-68
2021/09/06 01:44:28;;;;;;;4.13;1.60;;;;;;;14.78;65.37;101939.25;5091419;28;20287;-69
2021/09/06 01:46:56;;;;;;;2.00;1.30;;;;;;;14.80;64.98;101937.31;5091118;28;20215;-68
2021/09/06 01:49:24;;;;;;;2.83;1.30;;;;;;;14.79;64.81;101927.44;5091347;28;20204;-68
2021/09/06 01:51:53;;;;;;;2.97;1.30;;;;;;;14.75;64.71;101925.94;5091163;28;20204;-69
2021/09/06 01:54:21;;;;;;;2.33;1.50;;;;;;;14.87;64.21;101936.78;5092735;28;20209;-68
2021/09/06 01:56:49;;;;;;;4.30;1.33;;;;;;;14.86;65.09;101936.88;5090644;28;20212;-68
2021/09/06 01:59:19;;;;;;;2.47;1.40;;;;;;;14.90;65.09;101927.59;5090364;28;20284;-69
2021/09/06 02:01:47;;;;;;;4.37;1.70;;;;;;;14.88;65.25;101940.34;5125074;27;20231;-68
2021/09/06 02:04:17;;;;;;;3.40;1.50;;;;;;;14.88;65.74;101929.53;5091288;28;20265;-68
2021/09/06 02:06:46;;;;;;;1.40;1.20;;;;;;;14.93;65.79;101940.03;5091076;28;20200;-64
2021/09/06 02:09:15;;;;;;;5.03;1.77;;;;;;;14.94;65.32;101939.06;5090950;28;20191;-68
2021/09/06 02:11:44;;;;;;;3.67;1.40;;;;;;;14.96;64.98;101943.41;5090927;28;20214;-68
2021/09/06 02:14:13;;;;;;;4.53;1.50;;;;;;;14.96;65.59;101935.28;5090862;28;20304;-65
2021/09/06 02:16:46;;;;;;;2.53;1.67;;;;;;;14.98;65.59;101932.47;5086945;28;20220;-65
2021/09/06 02:19:30;;;;;;;2.43;1.40;;;;;;;14.97;65.47;101937.03;5088518;28;20237;-69
2021/09/06 02:21:59;;;;;;;2.50;1.20;;;;;;;14.81;65.21;101906.56;5090226;28;20209;-69
2021/09/06 02:24:30;;;;;;;2.13;1.37;;;;;;;14.97;66.11;101942.44;5090498;28;20597;-69
2021/09/06 02:27:04;;;;;;;3.10;1.47;;;;;;;14.86;66.47;101928.78;5091941;28;20748;-69
2021/09/06 02:29:37;;;;;;;2.00;1.30;;;;;;;14.92;66.75;101936.47;5090353;28;20295;-69
2021/09/06 02:32:20;;;;;;;2.67;1.40;;;;;;;14.94;67.55;101937.22;5089423;28;20646;-68
2021/09/06 02:35:07;;;;;;;2.27;1.17;;;;;;;14.88;66.92;101918.72;5075870;28;20202;-69
2021/09/06 02:37:36;;;;;;;1.77;1.23;;;;;;;14.93;67.47;101931.94;5078214;28;20220;-69
2021/09/06 02:40:08;;;;;;;3.10;1.77;;;;;;;14.82;67.12;101916.44;5088773;28;20591;-69
2021/09/06 02:42:38;;;;;;;3.10;1.40;;;;;;;14.94;66.94;101934.53;5088877;28;20367;-69
2021/09/06 02:45:08;;;;;;;1.70;1.30;;;;;;;14.94;67.16;101929.13;5088635;28;20206;-69
2021/09/06 02:47:38;;;;;;;1.17;1.10;;;;;;;14.99;66.60;101926.97;5089299;28;20192;-69
2021/09/06 02:50:07;;;;;;;3.17;1.20;;;;;;;15.00;66.87;101922.41;5089155;28;20207;-69
2021/09/06 02:52:36;;;;;;;2.03;1.30;;;;;;;14.99;67.09;101923.41;5089342;28;20208;-69
2021/09/06 02:55:06;;;;;;;1.77;1.33;;;;;;;15.00;66.97;101920.63;5089398;28;20265;-69
2021/09/06 02:57:40;;;;;;;1.50;1.27;;;;;;;14.96;67.76;101921.75;5089737;28;20247;-69
2021/09/06 03:00:10;;;;;;;1.27;1.17;;;;;;;15.00;68.08;101912.50;5088771;28;20273;-65
2021/09/06 03:02:41;;;;;;;2.20;1.40;;;;;;;15.05;67.13;101921.16;5089220;28;20215;-65
2021/09/06 03:05:10;;;;;;;1.77;1.30;;;;;;;15.03;68.10;101914.13;5090138;28;20201;-65
2021/09/06 03:07:44;;;;;;;2.57;1.40;;;;;;;15.03;67.71;101912.28;5088707;28;20207;-65
2021/09/06 03:10:13;;;;;;;2.00;1.30;;;;;;;15.06;67.08;101906.66;5088813;28;20261;-66
2021/09/06 03:12:41;;;;;;;2.10;1.43;;;;;;;14.99;68.11;101899.03;5090296;28;20204;-65
2021/09/06 03:15:10;;;;;;;2.10;1.40;;;;;;;15.05;67.63;101909.47;5089885;28;20213;-65
2021/09/06 03:17:40;;;;;;;3.10;1.30;;;;;;;15.07;67.54;101900.28;5085455;28;20721;-65
2021/09/06 03:20:14;;;;;;;1.43;1.30;;;;;;;14.87;67.65;101876.41;5088482;28;20210;-65
2021/09/06 03:22:42;;;;;;;1.43;1.07;;;;;;;15.03;68.43;101897.91;5087928;28;20738;-65
2021/09/06 03:25:11;;;;;;;1.80;1.10;;;;;;;15.11;66.26;101899.09;5088937;28;20234;-65
2021/09/06 03:27:39;;;;;;;3.40;1.30;;;;;;;15.07;67.54;101891.31;5088466;28;20838;-65
2021/09/06 03:30:09;;;;;;;2.10;1.30;;;;;;;15.10;66.58;101900.06;5088656;28;20200;-65
2021/09/06 03:32:37;;;;;;;1.43;1.10;;;;;;;15.07;67.17;101897.56;5087238;28;20909;-65
2021/09/06 03:35:11;;;;;;;1.00;1.00;;;;;;;15.06;66.85;101890.44;5087853;28;20205;-65
2021/09/06 03:37:41;;;;;;;4.03;1.30;;;;;;;15.09;66.82;101898.34;5087454;28;20205;-65
2021/09/06 03:40:11;;;;;;;2.60;1.40;;;;;;;15.09;66.82;101895.63;5087303;28;20206;-68
2021/09/06 03:42:39;;;;;;;1.47;1.20;;;;;;;15.12;67.29;101895.41;5084047;28;20218;-66
2021/09/06 03:45:08;;;;;;;2.00;1.40;;;;;;;15.10;66.87;101894.66;5084451;28;20335;-66
2021/09/06 03:47:37;;;;;;;2.70;1.13;;;;;;;15.04;67.10;101881.56;5081469;28;20208;-66
2021/09/06 03:50:07;;;;;;;1.53;1.17;;;;;;;15.12;66.75;101894.56;5073275;28;20292;-66
2021/09/06 03:52:38;;;;;;;3.07;1.10;;;;;;;15.09;66.33;101890.22;5079213;28;20216;-66
2021/09/06 03:55:09;;;;;;;1.83;1.10;;;;;;;15.07;66.77;101900.28;5082286;28;20734;-66
2021/09/06 03:57:37;;;;;;;3.10;1.03;;;;;;;15.06;66.87;101893.13;5083781;28;20664;-65
2021/09/06 04:00:07;;;;;;;1.93;1.40;;;;;;;15.08;66.63;101896.59;5087850;28;20257;-65
2021/09/06 04:02:45;;;;;;;2.13;1.27;;;;;;;15.10;66.07;101891.94;5069898;28;20300;-65
2021/09/06 04:05:21;;;;;;;3.60;1.07;;;;;;;15.10;66.41;101893.78;5081001;28;20202;-65
2021/09/06 04:07:52;;;;;;;1.47;1.10;;;;;;;15.14;66.38;101888.06;5075856;28;20973;-66
2021/09/06 04:10:21;;;;;;;2.13;1.30;;;;;;;15.15;66.04;101895.22;5073527;28;20569;-66
2021/09/06 04:12:49;;;;;;;1.53;1.13;;;;;;;15.19;64.68;101891.31;5080697;28;20235;-66
2021/09/06 04:15:18;;;;;;;3.83;1.30;;;;;;;15.17;64.92;101887.84;5084617;28;20257;-66
2021/09/06 04:17:46;;;;;;;1.30;1.20;;;;;;;15.14;65.33;101893.47;5086496;28;20195;-65
2021/09/06 04:20:14;;;;;;;1.30;1.10;;;;;;;15.15;65.51;101895.22;5086966;28;20224;-66
2021/09/06 04:22:46;;;;;;;2.80;1.27;;;;;;;15.25;64.16;101889.16;5087757;28;20203;-66
2021/09/06 04:25:15;;;;;;;2.13;1.27;;;;;;;15.17;64.14;101890.56;5082794;28;20318;-66
2021/09/06 04:27:44;;;;;;;1.07;0.90;;;;;;;15.14;64.26;101887.19;5087058;28;20212;-65
2021/09/06 04:30:16;;;;;;;2.33;1.20;;;;;;;15.14;64.67;101890.75;5088778;28;20300;-66
2021/09/06 04:32:45;;;;;;;1.63;1.10;;;;;;;15.17;64.09;101887.84;5086750;28;20212;-64
2021/09/06 04:35:14;;;;;;;3.83;1.07;;;;;;;15.10;64.50;101885.69;5081434;28;20658;-66
2021/09/06 04:37:43;;;;;;;1.33;0.97;;;;;;;15.08;64.47;101874.97;5080460;28;20435;-66
2021/09/06 04:40:18;;;;;;;1.80;0.97;;;;;;;15.14;63.54;101876.38;5082027;28;20228;-66
2021/09/06 04:42:51;;;;;;;3.40;1.10;;;;;;;15.10;64.35;101864.91;5087628;28;20203;-66
2021/09/06 04:45:19;;;;;;;2.03;1.20;;;;;;;15.05;62.54;101856.22;5070215;28;20234;-65
2021/09/06 04:47:50;;;;;;;1.57;0.97;;;;;;;15.15;63.64;101864.56;5083364;28;20241;-65
2021/09/06 04:50:20;;;;;;;2.93;1.00;;;;;;;15.19;62.93;101880.50;5080354;28;20224;-65
2021/09/06 04:52:48;;;;;;;5.50;0.93;;;;;;;15.19;63.31;101863.38;5066941;28;20216;-65
2021/09/06 04:55:16;;;;;;;0.83;0.80;;;;;;;15.25;63.29;101884.59;5077468;28;20301;-67
2021/09/06 04:57:46;;;;;;;1.17;0.80;;;;;;;15.20;63.03;101876.81;5068768;28;20218;-64
2021/09/06 05:00:14;;;;;;;0.87;0.80;;;;;;;15.18;62.90;101872.47;5068093;28;20228;-64
2021/09/06 05:02:44;;;;;;;1.97;1.10;;;;;;;15.25;62.60;101873.78;5066714;28;20694;-64
2021/09/06 05:05:12;;;;;;;1.20;0.77;;;;;;;15.30;62.06;101876.16;5066631;28;20546;-64
2021/09/06 05:07:41;;;;;;;1.70;1.20;;;;;;;15.32;62.00;101871.53;5068479;28;20879;-63
2021/09/06 05:10:10;;;;;;;1.30;0.93;;;;;;;15.14;61.53;101839.34;5071517;28;20245;-64
2021/09/06 05:12:38;;;;;;;0.80;0.80;;;;;;;15.36;61.44;101878.47;5076894;28;20571;-64
2021/09/06 05:15:09;;;;;;;1.30;1.00;;;;;;;15.30;61.64;101870.75;5076571;28;20239;-64
2021/09/06 05:17:37;;;;;;;1.20;1.00;;;;;;;15.38;61.08;101868.41;5073086;28;20219;-64
2021/09/06 05:20:07;;;;;;;1.20;0.93;;;;;;;15.38;61.61;101874.69;5070276;28;20307;-63
2021/09/06 05:22:36;;;;;;;1.00;0.80;;;;;;;15.30;62.18;101876.16;5081744;28;20224;-64
2021/09/06 05:25:05;;;;;;;2.00;1.20;;;;;;;15.34;61.53;101875.88;5085722;28;20366;-65
2021/09/06 05:27:34;;;;;;;3.63;1.23;;;;;;;15.35;61.75;101874.03;5074788;28;20675;-64
2021/09/06 05:30:03;;;;;;;0.80;0.80;;;;;;;15.37;61.02;101872.09;5080023;28;20743;-64
2021/09/06 05:32:37;;;;;;;1.10;1.00;;;;;;;15.35;61.42;101879.44;5079919;28;20200;-64
2021/09/06 05:35:09;;;;;;;1.03;0.93;;;;;;;15.38;60.78;101862.97;5081226;28;20460;-64
2021/09/06 05:37:40;;;;;;;2.27;0.80;;;;;;;15.39;60.75;101859.31;5075664;28;20205;-64
2021/09/06 05:40:10;;;;;;;0.90;0.90;;;;;;;15.39;61.02;101870.13;5071739;28;20225;-64
2021/09/06 05:42:38;;;;;;;1.90;1.07;;;;;;;15.36;61.04;101876.63;5077390;28;20209;-64
2021/09/06 05:45:08;;;;;;;1.30;1.10;;;;;;;15.42;60.65;101872.63;5081088;28;20691;-65
2021/09/06 05:47:42;;;;;;;0.93;0.87;;;;;;;15.40;60.57;101870.03;5079507;28;20203;-64
2021/09/06 05:50:17;;;;;;;2.20;1.10;;;;;;;15.47;60.35;101873.16;5075564;28;20295;-65
2021/09/06 05:53:06;;;;;;;1.60;1.10;;;;;;;15.47;60.44;101875.88;5076172;28;20216;-64
2021/09/06 05:55:34;;;;;;;1.47;1.00;;;;;;;15.47;60.36;101878.56;5081388;28;20205;-64
2021/09/06 05:58:03;;;;;;;1.50;0.97;;;;;;;15.45;59.97;101880.53;5080391;28;20207;-65
2021/09/06 06:00:32;;;;;;;1.13;1.00;;;;;;;15.48;60.28;101877.59;5072883;28;20227;-64
2021/09/06 06:03:02;;;;;;;1.33;0.87;;;;;;;15.42;60.92;101880.75;5077225;28;20292;-64
2021/09/06 06:05:31;;;;;;;2.77;0.80;;;;;;;15.46;60.72;101876.84;5069927;28;20623;-64
2021/09/06 06:07:59;;;;;;;1.73;1.13;;;;;;;15.44;60.00;101876.94;5070676;28;20210;-64
2021/09/06 06:10:27;;;;;;;1.00;0.70;;;;;;;15.48;60.32;101878.47;5069430;28;20201;-69
2021/09/06 06:12:57;;;;;;;2.50;1.20;;;;;;;15.60;59.64;101879.47;5069419;28;20214;-69
2021/09/06 06:15:25;;;;;;;1.77;1.10;;;;;;;15.65;59.54;101877.31;5069586;28;20229;-65
2021/09/06 06:17:54;;;;;;;2.70;1.00;;;;;;;15.62;59.23;101872.13;5088224;28;20253;-64
2021/09/06 06:20:24;;;;;;;0.90;0.90;;;;;;;15.59;59.44;101864.19;5089860;28;20603;-64
2021/09/06 06:23:11;;;;;;;2.90;1.07;;;;;;;15.70;59.53;101874.28;5077245;28;20708;-65
2021/09/06 06:26:07;;;;;;;1.47;0.97;;;;;;;15.61;59.53;101870.41;5089261;28;20257;-65
2021/09/06 06:28:35;;;;;;;4.10;0.97;;;;;;;15.59;59.66;101861.47;5088617;28;20201;-63
2021/09/06 06:31:04;;;;;;;1.47;1.00;;;;;;;15.70;59.02;101868.88;5084830;28;20200;-63
2021/09/06 06:33:32;;;;;;;1.83;0.97;;;;;;;15.78;59.66;101874.59;5086240;28;20211;-68
2021/09/06 06:36:10;;;;;;;0.80;0.80;;;;;;;15.69;58.75;101845.47;5086342;28;20205;-68
2021/09/06 06:38:41;;;;;;;0.80;0.70;;;;;;;15.80;59.28;101862.66;5085594;28;20261;-68
2021/09/06 06:41:13;;;;;;;0.77;0.77;;;;;;;15.89;58.74;101873.81;5087838;28;20222;-69
2021/09/06 06:43:50;;;;;;;1.53;0.80;;;;;;;15.89;58.90;101863.84;5090234;28;20199;-69
2021/09/06 06:46:18;;;;;;;1.47;0.87;;;;;;;15.89;59.16;101852.13;5082497;28;20685;-69
2021/09/06 06:48:49;;;;;;;1.63;1.00;;;;;;;15.99;59.65;101869.47;5082402;28;20291;-69
2021/09/06 06:51:24;;;;;;;1.00;1.00;;;;;;;15.84;59.25;101819.97;5086207;28;20285;-69
2021/09/06 06:53:53;;;;;;;0.80;0.80;;;;;;;16.15;58.71;101859.25;5087163;28;20229;-68
2021/09/06 06:56:25;;;;;;;3.47;1.00;;;;;;;16.26;59.17;101867.47;5088532;28;20219;-68
2021/09/06 06:58:58;;;;;;;1.77;1.00;;;;;;;16.28;58.98;101865.50;5082092;28;20707;-68
2021/09/06 07:01:26;;;;;;;1.13;1.00;;;;;;;16.32;59.28;101863.44;5087720;28;20661;-68
2021/09/06 07:03:55;;;;;;;0.83;0.83;;;;;;;16.32;59.79;101861.59;5081937;28;20586;-68
2021/09/06 07:06:27;;;;;;;1.97;1.00;;;;;;;16.45;58.58;101861.53;5085460;28;20250;-68
2021/09/06 07:08:55;;;;;;;1.20;0.80;;;;;;;16.50;58.98;101867.47;5083515;28;20333;-68
2021/09/06 07:11:24;;;;;;;0.80;0.80;;;;;;;16.61;58.30;101866.69;5085925;28;20203;-68
2021/09/06 07:13:57;;;;;;;0.87;0.70;;;;;;;16.72;58.31;101864.06;5085050;28;20596;-68
2021/09/06 07:16:26;;;;;;;1.90;0.80;;;;;;;16.94;57.40;101860.59;5086896;28;20204;-68
2021/09/06 07:18:54;;;;;;;0.80;0.80;;;;;;;17.00;56.29;101863.69;5082492;28;20204;-69
2021/09/06 07:21:23;;;;;;;0.97;0.83;;;;;;;16.90;57.80;101865.38;5081618;28;20236;-68
2021/09/06 07:23:54;;;;;;;4.00;0.90;;;;;;;16.91;57.81;101861.69;5085626;28;20240;-68
2021/09/06 07:26:23;;;;;;;2.10;0.97;;;;;;;16.93;57.97;101862.44;5086534;28;20215;-69
2021/09/06 07:28:58;;;;;;;1.17;0.90;;;;;;;16.95;57.99;101854.19;5086435;28;20201;-68
2021/09/06 07:31:27;;;;;;;1.60;0.83;;;;;;;17.13;57.05;101869.03;5082097;28;20619;-69
2021/09/06 07:33:56;;;;;;;1.67;0.80;;;;;;;17.17;58.00;101858.81;5083299;28;20232;-69
2021/09/06 07:36:24;;;;;;;1.23;0.80;;;;;;;17.31;57.76;101861.31;5068374;28;20209;-69
2021/09/06 07:38:54;;;;;;;1.57;0.87;;;;;;;17.49;56.92;101859.00;5086670;28;20212;-63
2021/09/06 07:41:26;;;;;;;5.67;1.00;;;;;;;17.57;56.94;101854.69;5085661;28;20220;-63
2021/09/06 07:43:54;;;;;;;0.63;0.63;;;;;;;17.71;56.60;101856.34;5085907;28;20192;-64
2021/09/06 07:46:22;;;;;;;2.10;0.93;;;;;;;17.76;56.73;101856.84;5085438;28;20258;-63
2021/09/06 07:48:52;;;;;;;0.90;0.83;;;;;;;17.84;56.67;101865.25;5083336;28;20197;-63
2021/09/06 07:51:22;;;;;;;0.97;0.93;;;;;;;17.80;57.27;101854.75;5084345;28;20689;-68
2021/09/06 07:53:50;;;;;;;0.87;0.87;;;;;;;17.84;56.00;101864.38;5085105;28;20205;-68
2021/09/06 07:56:21;;;;;;;3.03;1.00;;;;;;;17.93;56.30;101871.78;5080771;28;20292;-68
2021/09/06 07:58:50;;;;;;;1.40;1.00;;;;;;;17.84;54.98;101845.34;5084915;28;20330;-69
2021/09/06 08:01:18;;;;;;;1.43;0.93;;;;;;;17.92;55.82;101867.34;5087391;28;20224;-69
2021/09/06 08:03:48;;;;;;;1.50;0.83;;;;;;;17.94;55.78;101870.81;5080829;28;20221;-69
2021/09/06 08:06:16;;;;;;;0.80;0.80;;;;;;;17.97;54.94;101874.13;5083855;28;20205;-69
2021/09/06 08:08:45;;;;;;;1.17;0.80;;;;;;;17.98;56.01;101877.72;5078465;28;20205;-68
2021/09/06 08:11:13;;;;;;;1.90;1.00;;;;;;;17.95;55.75;101875.25;5068578;28;20610;-65
2021/09/06 08:13:45;;;;;;;1.73;0.93;;;;;;;17.79;57.09;101853.88;5084890;28;20564;-69
2021/09/06 08:16:14;;;;;;;1.10;0.80;;;;;;;18.04;56.48;101884.50;5085116;28;20261;-69
2021/09/06 08:18:44;;;;;;;0.60;0.60;;;;;;;18.18;55.75;101885.13;5084859;28;20295;-69
2021/09/06 08:21:13;;;;;;;1.47;0.90;;;;;;;18.15;56.48;101877.22;5083627;28;20305;-68
2021/09/06 08:23:41;;;;;;;2.27;0.77;;;;;;;18.27;56.06;101884.38;5085341;28;20284;-69
2021/09/06 08:26:10;;;;;;;1.20;0.87;;;;;;;18.28;56.51;101858.03;5085337;28;20209;-69
2021/09/06 08:28:39;;;;;;;4.00;0.90;;;;;;;18.50;56.08;101879.75;5083761;28;20201;-69
2021/09/06 08:31:09;;;;;;;2.67;1.00;;;;;;;18.45;56.30;101856.66;5083307;28;20196;-69
2021/09/06 08:33:40;;;;;;;1.83;0.73;;;;;;;18.51;56.26;101880.63;5080529;28;20201;-69
2021/09/06 08:36:10;;;;;;;1.07;0.80;;;;;;;18.42;56.35;101865.94;5067875;28;20251;-69
2021/09/06 08:38:40;;;;;;;1.13;0.90;;;;;;;18.57;56.49;101883.69;5076823;28;20655;-68
2021/09/06 08:41:12;;;;;;;1.87;1.00;;;;;;;18.82;55.39;101882.53;5083324;28;20236;-69
2021/09/06 08:43:42;;;;;;;0.70;0.70;;;;;;;18.77;55.17;101860.28;5082596;28;20620;-69
2021/09/06 08:46:22;;;;;;;0.80;0.80;;;;;;;19.09;54.30;101875.75;5082863;28;20739;-69
2021/09/06 08:48:51;;;;;;;0.80;0.80;;;;;;;19.20;55.73;101889.31;5082804;28;20208;-69
2021/09/06 08:51:22;;;;;;;1.37;0.97;;;;;;;19.21;54.62;101883.72;5082544;28;20205;-69
2021/09/06 08:53:51;;;;;;;1.33;0.90;;;;;;;19.48;53.49;101887.78;5080786;28;20243;-69
2021/09/06 08:56:21;;;;;;;0.93;0.80;;;;;;;19.59;53.04;101878.69;5087195;28;20689;-69
2021/09/06 08:59:07;;;;;;;3.43;0.90;;;;;;;19.67;52.62;101879.75;5087588;28;20204;-69
2021/09/06 09:01:42;;;;;;;2.20;1.10;;;;;;;19.77;52.61;101879.81;5083092;28;20694;-69
2021/09/06 09:04:36;;;;;;;1.80;1.17;;;;;;;19.80;53.30;101874.94;5074153;28;20236;-69
2021/09/06 09:07:31;;;;;;;0.80;0.80;;;;;;;19.89;52.62;101859.63;5084506;28;20254;-69
2021/09/06 09:10:27;;;;;;;0.70;0.70;;;;;;;20.06;51.68;101878.06;5084854;28;20201;-65
2021/09/06 09:13:18;;;;;;;2.00;0.60;;;;;;;20.19;51.91;101891.47;5081795;28;20254;-65
2021/09/06 09:16:05;;;;;;;1.30;0.87;;;;;;;20.27;51.10;101878.00;5086413;28;20220;-64
2021/09/06 09:19:07;;;;;;;3.57;0.90;;;;;;;20.29;51.48;101886.06;5049583;28;20217;-63
2021/09/06 09:21:56;;;;;;;8.90;1.37;;;;;;;20.16;51.95;101884.41;5085027;28;20346;-69
2021/09/06 09:24:36;;;;;;;3.77;1.23;;;;;;;20.34;51.95;101881.03;5085333;28;20220;-69
2021/09/06 09:27:32;;;;;;;1.53;1.10;;;;;;;20.46;51.78;101874.50;5079702;28;20219;-69
2021/09/06 09:30:07;;;;;;;1.87;1.17;;;;;;;20.55;51.68;101881.84;5077281;28;20595;-69
2021/09/06 09:32:49;;;;;;;0.70;0.70;;;;;;;20.78;50.23;101883.31;5083741;28;20189;-65
2021/09/06 09:35:34;;;;;;;2.30;1.00;;;;;;;20.89;49.53;101892.38;5080161;28;20211;-65
2021/09/06 09:38:06;;;;;;;2.63;0.80;;;;;;;20.98;48.14;101894.25;5082897;28;20658;-65
2021/09/06 09:40:35;;;;;;;1.73;0.80;;;;;;;21.05;48.19;101887.19;5083057;28;20565;-65
2021/09/06 09:43:04;;;;;;;2.27;1.10;;;;;;;20.94;47.51;101851.84;5083660;28;20217;-65
2021/09/06 09:45:34;;;;;;;1.50;1.00;;;;;;;21.13;46.69;101889.25;5107373;28;20196;-64
2021/09/06 09:48:24;;;;;;;1.10;1.03;;;;;;;20.85;46.86;101850.00;5082246;28;20204;-64
2021/09/06 09:50:54;;;;;;;0.87;0.87;;;;;;;20.99;46.96;101883.19;5084083;28;20214;-64
2021/09/06 09:53:22;;;;;;;1.50;1.00;;;;;;;21.03;46.52;101879.16;5087177;28;20225;-65
2021/09/06 09:55:52;;;;;;;2.47;1.17;;;;;;;20.86;46.68;101821.66;5085985;28;20682;-65
2021/09/06 09:58:20;;;;;;;1.07;0.80;;;;;;;21.16;46.65;101876.16;5089007;28;20211;-65
2021/09/06 10:00:50;;;;;;;1.60;0.83;;;;;;;21.24;46.32;101867.25;5087156;28;20212;-65
2021/09/06 10:03:25;;;;;;;1.07;0.80;;;;;;;21.36;46.44;101869.66;5085900;28;20224;-65
2021/09/06 10:05:56;;;;;;;1.20;1.10;;;;;;;21.43;46.16;101866.34;5081218;28;20203;-69
2021/09/06 10:08:24;;;;;;;1.67;1.20;;;;;;;21.37;45.49;101876.84;5085833;28;20221;-69
2021/09/06 10:10:53;;;;;;;1.03;0.90;;;;;;;21.49;45.96;101868.50;5083645;28;20223;-69
2021/09/06 10:13:25;;;;;;;2.17;1.07;;;;;;;21.67;45.96;101870.31;5089012;28;20515;-69
2021/09/06 10:16:00;;;;;;;0.90;0.83;;;;;;;21.72;44.91;101866.25;5100781;28;20209;-69
2021/09/06 10:18:37;;;;;;;0.90;0.90;;;;;;;21.76;45.30;101865.84;5085048;28;20585;-69
2021/09/06 10:21:15;;;;;;;0.90;0.90;;;;;;;21.70;46.08;101875.47;5082420;28;20200;-68
2021/09/06 10:23:47;;;;;;;1.70;1.10;;;;;;;21.63;46.21;101865.28;5087595;28;20643;-68
2021/09/06 10:26:16;;;;;;;1.77;1.10;;;;;;;21.53;46.92;101876.25;5083953;28;20567;-69
2021/09/06 10:28:45;;;;;;;1.47;1.10;;;;;;;21.44;47.25;101871.69;5085074;28;20197;-69
2021/09/06 10:31:19;;;;;;;2.37;0.93;;;;;;;21.42;46.62;101872.81;5083305;28;20288;-69
2021/09/06 10:33:58;;;;;;;1.17;1.03;;;;;;;21.15;47.63;101868.97;5071238;28;20545;-68
2021/09/06 10:36:28;;;;;;;0.93;0.90;;;;;;;21.14;47.59;101885.50;5085358;28;20205;-69
2021/09/06 10:39:04;;;;;;;4.67;0.77;;;;;;;20.99;47.83;101871.41;5084541;28;20222;-69
2021/09/06 10:41:44;;;;;;;1.00;0.80;;;;;;;20.89;48.09;101876.00;5086314;28;20235;-66
2021/09/06 10:44:13;;;;;;;1.07;0.90;;;;;;;20.95;48.28;101864.50;5081997;28;20257;-65
2021/09/06 10:46:53;;;;;;;0.80;0.80;;;;;;;20.72;48.51;101836.59;5085185;28;20263;-64
2021/09/06 10:49:25;;;;;;;1.13;1.03;;;;;;;20.95;48.82;101864.50;5087127;28;20608;-63
2021/09/06 10:51:59;;;;;;;4.33;0.97;;;;;;;21.05;47.86;101868.06;5085572;28;20211;-68
2021/09/06 10:54:29;;;;;;;4.40;1.13;;;;;;;20.86;48.66;101855.31;5086882;28;20216;-69
2021/09/06 10:56:58;;;;;;;1.03;0.80;;;;;;;20.94;48.40;101868.22;5084358;28;20201;-69
2021/09/06 10:59:27;;;;;;;1.27;1.00;;;;;;;20.97;48.05;101867.94;5088418;28;20209;-69
2021/09/06 11:01:57;;;;;;;1.07;0.80;;;;;;;20.94;48.15;101862.78;5085852;28;20668;-68
2021/09/06 11:04:28;;;;;;;2.03;0.90;;;;;;;20.99;47.97;101868.66;5085843;28;20200;-68
2021/09/06 11:07:04;;;;;;;0.90;0.77;;;;;;;20.96;48.12;101871.69;5081544;28;20239;-68
2021/09/06 11:09:35;;;;;;;0.90;0.90;;;;;;;20.70;48.17;101800.38;5084387;28;20196;-68
2021/09/06 11:12:07;;;;;;;1.40;1.00;;;;;;;20.95;48.09;101864.50;5086421;28;20218;-68
2021/09/06 11:14:37;;;;;;;1.27;1.17;;;;;;;20.88;48.55;101868.81;5087737;28;20203;-68
2021/09/06 11:17:20;;;;;;;1.57;0.80;;;;;;;20.95;48.42;101869.97;5086417;28;20228;-68
2021/09/06 11:19:50;;;;;;;1.07;1.07;;;;;;;21.03;48.40;101862.75;5083839;28;20200;-68
2021/09/06 11:22:22;;;;;;;1.63;0.80;;;;;;;21.07;47.12;101868.78;5087584;28;20257;-68
2021/09/06 11:24:56;;;;;;;0.97;0.87;;;;;;;21.01;47.44;101844.78;5086893;28;20228;-68
2021/09/06 11:27:32;;;;;;;1.30;1.03;;;;;;;21.17;47.52;101866.94;5088003;28;20215;-69
2021/09/06 11:30:02;;;;;;;1.10;1.00;;;;;;;21.31;47.19;101869.25;5083500;28;20706;-68
2021/09/06 11:32:31;;;;;;;1.07;0.97;;;;;;;21.25;47.76;101866.25;5086286;28;20217;-69
2021/09/06 11:35:05;;;;;;;1.73;0.90;;;;;;;21.20;47.55;101871.25;5084553;28;20580;-68
2021/09/06 11:37:36;;;;;;;1.17;0.90;;;;;;;21.43;47.74;101869.06;5083466;28;20204;-68
2021/09/06 11:40:06;;;;;;;4.47;1.10;;;;;;;21.32;47.49;101868.22;5068168;28;20201;-68
2021/09/06 11:42:36;;;;;;;0.80;0.70;;;;;;;21.35;47.64;101867.94;5087346;28;20232;-68
2021/09/06 11:45:06;;;;;;;0.73;0.73;;;;;;;21.33;47.40;101869.97;5085025;28;20195;-69